createdAt,value
2018-11-13T00:02:55.200Z,100551.00
2018-11-13T00:07:58.229Z,100546.00
2018-11-13T00:13:03.134Z,100557.00
2018-11-13T00:18:06.084Z,100553.00
2018-11-13T00:23:09.059Z,100564.00
2018-11-13T00:28:12.014Z,100570.00
2018-11-13T00:33:14.983Z,100561.00
2018-11-13T00:38:17.950Z,100555.00
2018-11-13T00:43:20.916Z,100565.00
2018-11-13T00:48:23.997Z,100567.00
2018-11-13T00:53:26.955Z,100593.00
2018-11-13T00:58:30.608Z,100616.00
2018-11-13T01:03:33.536Z,100634.00
2018-11-13T01:08:36.475Z,100643.00
2018-11-13T01:13:39.409Z,100635.00
2018-11-13T01:18:42.438Z,100639.00
2018-11-13T01:23:45.495Z,100655.00
2018-11-13T01:28:48.492Z,100643.00
2018-11-13T01:33:51.479Z,100639.00
2018-11-13T01:38:54.454Z,100649.00
2018-11-13T01:43:57.361Z,100650.00
2018-11-13T01:49:00.394Z,100645.00
2018-11-13T01:54:05.921Z,100635.00
2018-11-13T01:59:08.901Z,100617.00
2018-11-13T02:04:11.900Z,100626.00
2018-11-13T02:09:14.909Z,100630.00
2018-11-13T02:14:17.838Z,100643.00
2018-11-13T02:19:20.827Z,100673.00
2018-11-13T02:24:23.816Z,100665.00
2018-11-13T02:29:26.752Z,100667.00
2018-11-13T02:34:29.716Z,100693.00
2018-11-13T02:39:32.709Z,100685.00
2018-11-13T02:44:35.661Z,100678.00
2018-11-13T02:49:38.889Z,100682.00
2018-11-13T02:54:41.938Z,100695.00
2018-11-13T02:59:44.921Z,100701.00
2018-11-13T03:04:47.905Z,100694.00
2018-11-13T03:09:50.854Z,100726.00
2018-11-13T03:14:53.808Z,100708.00
2018-11-13T03:19:56.802Z,100715.00
2018-11-13T03:24:59.778Z,100725.00
2018-11-13T03:30:14.134Z,100721.00
2018-11-13T03:35:17.192Z,100703.00
2018-11-13T03:40:20.188Z,100691.00
2018-11-13T03:45:23.146Z,100700.00
2018-11-13T03:50:26.092Z,100716.00
2018-11-13T03:55:29.024Z,100719.00
2018-11-13T04:00:32.094Z,100733.00
2018-11-13T04:05:35.078Z,100740.00
2018-11-13T04:10:38.025Z,100738.00
2018-11-13T04:15:40.976Z,100754.00
2018-11-13T04:20:43.943Z,100754.00
2018-11-13T04:25:46.921Z,100750.00
2018-11-13T04:30:49.968Z,100757.00
2018-11-13T04:35:52.878Z,100760.00
2018-11-13T04:40:55.763Z,100768.00
2018-11-13T04:45:58.706Z,100774.00
2018-11-13T04:51:03.793Z,100763.00
2018-11-13T04:56:06.808Z,100743.00
2018-11-13T05:01:09.752Z,100731.00
2018-11-13T05:06:12.724Z,100748.00
2018-11-13T05:11:16.263Z,100748.00
2018-11-13T05:16:19.249Z,100762.00
2018-11-13T05:21:22.314Z,100782.00
2018-11-13T05:26:25.294Z,100783.00
2018-11-13T05:31:28.300Z,100795.00
2018-11-13T05:36:31.251Z,100794.00
2018-11-13T05:41:34.249Z,100790.00
2018-11-13T05:46:37.340Z,100799.00
2018-11-13T05:51:40.338Z,100803.00
2018-11-13T05:56:43.299Z,100806.00
2018-11-13T06:01:46.234Z,100825.00
2018-11-13T06:06:49.200Z,100822.00
2018-11-13T06:11:52.167Z,100828.00
2018-11-13T06:16:55.107Z,100828.00
2018-11-13T06:21:58.072Z,100835.00
2018-11-13T06:27:03.177Z,100844.00
2018-11-13T06:32:06.410Z,100853.00
2018-11-13T06:37:09.372Z,100861.00
2018-11-13T06:42:12.320Z,100880.00
2018-11-13T06:47:15.268Z,100891.00
2018-11-13T06:52:18.200Z,100901.00
2018-11-13T06:57:21.389Z,100908.00
2018-11-13T07:02:24.426Z,100911.00
2018-11-13T07:07:27.403Z,100944.00
2018-11-13T07:12:30.375Z,100946.00
2018-11-13T07:17:33.328Z,100953.00
2018-11-13T07:22:36.895Z,100950.00
2018-11-13T07:27:40.423Z,100940.00
2018-11-13T07:32:43.253Z,100964.00
2018-11-13T07:37:47.984Z,100965.00
2018-11-13T07:42:51.030Z,100959.00
2018-11-13T07:47:54.268Z,101005.00
2018-11-13T07:52:57.157Z,101025.00
2018-11-13T07:58:00.138Z,101018.00
2018-11-13T08:03:23.494Z,101004.00
2018-11-13T08:08:26.478Z,101011.00
2018-11-13T08:13:29.735Z,101038.00
2018-11-13T08:18:32.674Z,101023.00
2018-11-13T08:23:35.598Z,101064.00
2018-11-13T08:28:38.664Z,101082.00
2018-11-13T08:33:41.596Z,101067.00
2018-11-13T08:38:45.212Z,101067.00
2018-11-13T08:43:48.289Z,101072.00
2018-11-13T08:48:51.183Z,101086.00
2018-11-13T08:53:54.127Z,101101.00
2018-11-13T08:58:57.164Z,101085.00
2018-11-13T09:04:00.200Z,101091.00
2018-11-13T09:09:09.570Z,101120.00
2018-11-13T09:14:12.549Z,101117.00
2018-11-13T09:19:15.678Z,101119.00
2018-11-13T09:24:18.561Z,101134.00
2018-11-13T09:29:21.520Z,101148.00
2018-11-13T09:34:24.508Z,101155.00
2018-11-13T09:39:27.512Z,101167.00
2018-11-13T09:44:30.513Z,101164.00
2018-11-13T09:49:33.372Z,101177.00
2018-11-13T09:54:36.342Z,101170.00
2018-11-13T09:59:39.335Z,101175.00
2018-11-13T10:04:43.004Z,101177.00
2018-11-13T10:09:45.283Z,101177.00
2018-11-13T10:14:48.420Z,101185.00
2018-11-13T10:19:51.373Z,101188.00
2018-11-13T10:24:54.468Z,101188.00
2018-11-13T10:29:57.783Z,101188.00
2018-11-13T10:35:03.055Z,101185.00
2018-11-13T10:40:08.471Z,101186.00
2018-11-13T10:45:13.868Z,101185.00
2018-11-13T10:50:19.956Z,101183.00
2018-11-13T10:55:23.010Z,101181.00
2018-11-13T11:00:31.764Z,101189.00
2018-11-13T11:05:34.731Z,101181.00
2018-11-13T11:10:38.603Z,101177.00
2018-11-13T11:15:42.114Z,101184.00
2018-11-13T11:20:45.088Z,101174.00
2018-11-13T11:25:48.083Z,101177.00
2018-11-13T11:30:51.077Z,101180.00
2018-11-13T11:35:54.068Z,101177.00
2018-11-13T11:40:57.024Z,101169.00
2018-11-13T11:46:00.014Z,101185.00
2018-11-13T11:51:04.048Z,101182.00
2018-11-13T11:56:07.291Z,101180.00
2018-11-13T12:01:10.233Z,101187.00
2018-11-13T12:06:13.265Z,101195.00
2018-11-13T12:11:16.391Z,101189.00
2018-11-13T12:16:19.840Z,101196.00
2018-11-13T12:21:22.903Z,101185.00
2018-11-13T12:26:25.883Z,101187.00
2018-11-13T12:31:28.843Z,101187.00
2018-11-13T12:36:31.791Z,101188.00
2018-11-13T12:41:34.939Z,101189.00
2018-11-13T12:46:38.071Z,101189.00
2018-11-13T12:51:46.372Z,101198.00
2018-11-13T12:56:49.334Z,101199.00
2018-11-13T13:01:53.379Z,101206.00
2018-11-13T13:06:55.469Z,101204.00
2018-11-13T13:11:58.455Z,101202.00
2018-11-13T13:17:02.172Z,101202.00
2018-11-13T13:22:05.728Z,101203.00
2018-11-13T13:27:08.741Z,101206.00
2018-11-13T13:32:11.725Z,101208.00
2018-11-13T13:37:14.776Z,101198.00
2018-11-13T13:42:17.930Z,101210.00
2018-11-13T13:47:20.908Z,101211.00
2018-11-13T13:52:23.867Z,101220.00
2018-11-13T13:57:26.891Z,101223.00
2018-11-13T14:02:30.200Z,101231.00
2018-11-13T14:07:33.367Z,101230.00
2018-11-13T14:12:36.346Z,101239.00
2018-11-13T14:17:39.918Z,101232.00
2018-11-13T14:22:43.007Z,101237.00
2018-11-13T14:27:46.404Z,101243.00
2018-11-13T14:32:50.139Z,101251.00
2018-11-13T14:37:53.154Z,101253.00
2018-11-13T14:42:56.343Z,101257.00
2018-11-13T14:47:59.404Z,101258.00
2018-11-13T14:53:05.412Z,101269.00
2018-11-13T14:58:10.162Z,101274.00
2018-11-13T15:03:14.582Z,101286.00
2018-11-13T15:08:17.526Z,101294.00
2018-11-13T15:13:21.968Z,101306.00
2018-11-13T15:18:24.881Z,101310.00
2018-11-13T15:23:27.875Z,101318.00
2018-11-13T15:28:30.937Z,101332.00
2018-11-13T15:33:33.849Z,101339.00
2018-11-13T15:38:36.873Z,101343.00
2018-11-13T15:43:39.824Z,101356.00
2018-11-13T15:48:42.764Z,101368.00
2018-11-13T15:53:45.646Z,101376.00
2018-11-13T15:58:48.595Z,101382.00
2018-11-13T16:03:51.525Z,101382.00
2018-11-13T16:08:54.481Z,101393.00
2018-11-13T16:13:57.423Z,101411.00
2018-11-13T16:19:00.377Z,101411.00
2018-11-13T16:24:03.561Z,101411.00
2018-11-13T16:29:06.484Z,101422.00
2018-11-13T16:34:09.593Z,101422.00
2018-11-13T16:39:14.016Z,101437.00
2018-11-13T16:44:16.953Z,101446.00
2018-11-13T16:49:19.877Z,101449.00
2018-11-13T16:54:22.962Z,101445.00
2018-11-13T16:59:25.857Z,101449.00
2018-11-13T17:04:28.783Z,101439.00
2018-11-13T17:09:31.711Z,101459.00
2018-11-13T17:14:34.923Z,101459.00
2018-11-13T17:19:37.974Z,101468.00
2018-11-13T17:24:41.010Z,101468.00
2018-11-13T17:29:43.988Z,101481.00
2018-11-13T17:34:47.113Z,101477.00
2018-11-13T17:39:50.077Z,101472.00
2018-11-13T17:44:53.454Z,101478.00
2018-11-13T17:49:56.468Z,101492.00
2018-11-13T17:54:59.453Z,101496.00
2018-11-13T18:00:09.894Z,101491.00
2018-11-13T18:05:13.419Z,101492.00
2018-11-13T18:10:16.527Z,101504.00
2018-11-13T18:15:21.046Z,101504.00
2018-11-13T18:20:26.101Z,101511.00
2018-11-13T18:25:29.431Z,101518.00
2018-11-13T18:30:33.958Z,101534.00
2018-11-13T18:35:38.384Z,101535.00
2018-11-13T18:40:41.930Z,101531.00
2018-11-13T18:45:45.125Z,101533.00
2018-11-13T18:50:48.178Z,101523.00
2018-11-13T18:55:51.517Z,101529.00
2018-11-13T19:00:54.626Z,101528.00
2018-11-13T19:05:57.936Z,101537.00
2018-11-13T19:11:03.163Z,101532.00
2018-11-13T19:16:09.173Z,101534.00
2018-11-13T19:21:12.298Z,101530.00
2018-11-13T19:26:15.337Z,101545.00
2018-11-13T19:31:18.653Z,101546.00
2018-11-13T19:36:21.741Z,101545.00
2018-11-13T19:41:24.752Z,101551.00
2018-11-13T19:46:27.704Z,101550.00
2018-11-13T19:51:30.703Z,101561.00
2018-11-13T19:56:33.588Z,101577.00
2018-11-13T20:01:36.572Z,101572.00
2018-11-13T20:06:39.735Z,101575.00
2018-11-13T20:11:42.715Z,101559.00
2018-11-13T20:16:46.230Z,101566.00
2018-11-13T20:21:49.214Z,101574.00
2018-11-13T20:26:52.105Z,101582.00
2018-11-13T20:31:55.162Z,101576.00
2018-11-13T20:36:58.309Z,101583.00
2018-11-13T20:42:03.620Z,101588.00
2018-11-13T20:47:06.596Z,101585.00
2018-11-13T20:52:09.696Z,101599.00
2018-11-13T20:57:12.693Z,101600.00
2018-11-13T21:02:16.048Z,101597.00
2018-11-13T21:07:19.053Z,101602.00
2018-11-13T21:12:22.115Z,101599.00
2018-11-13T21:17:25.296Z,101601.00
2018-11-13T21:22:28.105Z,101604.00
2018-11-13T21:27:31.670Z,101601.00
2018-11-13T21:32:34.681Z,101597.00
2018-11-13T21:37:37.742Z,101606.00
2018-11-13T21:42:41.248Z,101605.00
2018-11-13T21:47:44.208Z,101603.00
2018-11-13T21:52:47.237Z,101606.00
2018-11-13T21:57:50.265Z,101607.00
2018-11-13T22:02:55.783Z,101612.00
2018-11-13T22:07:58.871Z,101599.00
2018-11-13T22:13:04.140Z,101607.00
2018-11-13T22:18:07.108Z,101608.00
2018-11-13T22:23:10.215Z,101601.00
2018-11-13T22:28:13.178Z,101600.00
2018-11-13T22:33:16.047Z,101606.00
2018-11-13T22:38:19.138Z,101612.00
2018-11-13T22:43:22.019Z,101601.00
2018-11-13T22:48:24.954Z,101601.00
2018-11-13T22:53:27.948Z,101607.00
2018-11-13T22:58:30.958Z,101624.00
2018-11-13T23:03:33.958Z,101612.00
2018-11-13T23:08:36.947Z,101601.00
2018-11-13T23:13:40.124Z,101612.00
2018-11-13T23:18:43.078Z,101609.00
2018-11-13T23:23:46.062Z,101603.00
2018-11-13T23:28:49.000Z,101600.00
2018-11-13T23:33:52.309Z,101597.00
2018-11-13T23:38:55.062Z,101618.00
2018-11-13T23:43:58.126Z,101603.00
2018-11-13T23:49:02.176Z,101612.00
2018-11-13T23:54:05.600Z,101603.00
2018-11-13T23:59:08.538Z,101617.00
